Congaree, SC

10:52 PM EST on November 22, 2014 (GMT -0500)
McEntire Angs | Change Station
CLOSE
Current Station
Airport
Location: Eastover,
Elevation: 253 ft
Nearby Weather Stations

Elev 253 ft 33.92 °N, 80.80 °W | Updated 54 minutes ago

Mostly Cloudy
Mostly Cloudy
50 °F
Feels Like 50 °F
N
6
Wind Variable Wind from East

Today
High -- | Low -- °F
--% Chance of Precip.
Yesterday
High -- | Low -- °F
Precip. -- in
7:01 AM 5:16 PM
New Moon, 0% visible
Pressure 30.31 in
Visibility 10.0 miles
Clouds Scattered Clouds 15000 ft
Mostly Cloudy 17000 ft
Dew Point 37 °F
Humidity 62%
Rainfall 0.00 in
Snow Depth Not available.
UV 0 out of 12
Pollen .70 out of 12
Air Quality Not available.
Flu Activity Not available.
METAR KMMT 230258Z AUTO 10005KT 10SM SCT150 BKN170 10/03 A3030 RMK AO2 SLP264 T00990030 58013

More Conditions Fewer Conditions

Pressure 30.31 in
Visibility 10.0 miles
Clouds Scattered Clouds 15000 ft
Mostly Cloudy 17000 ft
Dew Point 37 °F
Humidity 62%
Rainfall 0.00 in
Snow Depth Not available.
UV 0 out of 12
Pollen .70 out of 12
Air Quality Not available.
Flu Activity Not available.
METAR KMMT 230258Z AUTO 10005KT 10SM SCT150 BKN170 10/03 A3030 RMK AO2 SLP264 T00990030 58013

More Conditions Fewer Conditions

10-Day Weather Forecast

Almanac

Astronomy

Nov. 22, 2014 Rise Set
Actual Time
Civil Twilight
Nautical Twilight
Astronomical Twilight
Moon
Length of Visible Light
Length of Day
Tomorrow will be .
, % of the Moon is Illuminated

Today's Extremes

State Highs State Lows

Community

WunderPhotos

Upload Photos

1,772,990 photos uploaded!

WunderBlogs® & News

Nearby

Air Quality

  Air Quality AQ Index Pollutant
Not available.

Snow Depth

Station Depth Elevation

Earthquake Activity

City Distance Mag. Time & Date
Minimum magnitude displayed is 2.5.

Coastal Water Temperatures

Place Temperature

Nearby Weather Stations